KBWG/BWG METAR and TAF weather

Enter ICAO airport designator
Station Type Date Time Source
KBWG METAR 2018/04/20 08:53 UTC NOAA

KBWG 200853Z AUTO 00000KT 10SM CLR 02/01 A3037 RMK AO2 SLP287 T00170006 53004


Station Type Date Time Source
KBWG Decoded METAR 2018/04/20 08:53 UTC NOAA

BOWLING GREEN-WARREN CO RGNL, KY, United States (KBWG) 36-58N 086-25W 161M
Apr 20, 2018 - 04:53 AM EDT / 2018.04.20 0853 UTC
Wind: Calm:0
Visibility: 10 mile(s):0
Sky conditions: clear
Temperature: 35.1 F (1.7 C)
Dew Point: 33.1 F (0.6 C)
Relative Humidity: 92%
Pressure (altimeter): 30.37 in. Hg (1028 hPa)
Pressure tendency: 0.01 inches (0.4 hPa) higher than three hours ago
ob: KBWG 200853Z AUTO 00000KT 10SM CLR 02/01 A3037 RMK AO2 SLP287 T00170006 53004
cycle: 9

Station Type Date Time Source
KBWG TAF 2018/04/20 06:24 UTC NOAA

TAF KBWG 200522Z 2006/2106 VRB03KT P6SM SKC
FM201400 06008KT P6SM SKC


Example: see airport list